Time;durP1;ratioP1;P1;durP2;ratioP2;P2;SDS_P1;SDS_P2;PMS_P1;PMS_P2;Temp;Humidity;BMP_temperature;BMP_pressure;BME280_temperature;BME280_humidity;BME280_pressure;Samples;Min_cycle;Max_cycle;Signal;HPM_P1;HPM_P2
2023/06/13 00:01:11;;;;;;;5.57;3.60;;;25.70;42.30;;;;;;4938968;29;20204;-87
2023/06/13 00:03:37;;;;;;;5.43;3.80;;;25.70;42.30;;;;;;4905069;29;20240;-87
2023/06/13 00:06:03;;;;;;;4.13;3.73;;;25.70;42.70;;;;;;4922086;29;20738;-87
2023/06/13 00:08:31;;;;;;;6.20;3.90;;;25.70;42.20;;;;;;4905636;29;20280;-87
2023/06/13 00:10:59;;;;;;;4.43;3.83;;;25.60;42.20;;;;;;4904564;29;20181;-87
2023/06/13 00:13:25;;;;;;;4.67;4.00;;;25.70;42.20;;;;;;4905647;29;20177;-87
2023/06/13 00:16:02;;;;;;;4.33;3.87;;;25.60;42.20;;;;;;4935141;29;20203;-87
2023/06/13 00:18:31;;;;;;;4.37;3.70;;;25.60;42.10;;;;;;4924673;29;20211;-87
2023/06/13 00:20:58;;;;;;;4.27;3.87;;;25.70;42.20;;;;;;4940681;29;20204;-87
2023/06/13 00:23:25;;;;;;;3.77;3.40;;;25.70;42.20;;;;;;4924487;29;20180;-87
2023/06/13 00:25:57;;;;;;;5.80;4.10;;;25.70;42.20;;;;;;4922182;29;20165;-87
2023/06/13 00:28:23;;;;;;;5.43;4.13;;;25.70;42.20;;;;;;4905597;29;20526;-87
2023/06/13 00:31:09;;;;;;;4.80;3.77;;;25.60;42.20;;;;;;4928527;29;20211;-87
2023/06/13 00:33:35;;;;;;;4.80;4.10;;;25.60;42.30;;;;;;4924342;29;20188;-86
2023/06/13 00:36:06;;;;;;;6.30;3.87;;;25.60;42.30;;;;;;4939075;29;20192;-86
2023/06/13 00:38:32;;;;;;;5.03;3.87;;;25.60;42.40;;;;;;4936341;29;20279;-86
2023/06/13 00:40:58;;;;;;;4.73;4.07;;;25.50;42.40;;;;;;4912809;29;20302;-87
2023/06/13 00:43:31;;;;;;;4.77;4.20;;;25.50;42.40;;;;;;4939792;29;20251;-87
2023/06/13 00:45:56;;;;;;;5.30;4.03;;;25.50;42.50;;;;;;4924171;29;20164;-87
2023/06/13 00:48:25;;;;;;;4.87;3.53;;;25.40;42.90;;;;;;4940223;29;20165;-87
2023/06/13 00:50:52;;;;;;;4.23;3.70;;;25.40;42.50;;;;;;4919730;29;20280;-87
2023/06/13 00:53:29;;;;;;;5.50;3.63;;;25.40;42.60;;;;;;4904743;29;20264;-87
2023/06/13 00:55:59;;;;;;;4.37;3.80;;;25.30;42.50;;;;;;4919663;29;20200;-87
2023/06/13 00:58:28;;;;;;;3.93;3.53;;;25.30;42.60;;;;;;4920380;29;20238;-87
2023/06/13 01:01:24;;;;;;;4.77;4.27;;;25.30;42.60;;;;;;4922342;29;20209;-86
2023/06/13 01:03:50;;;;;;;5.87;4.50;;;25.20;42.60;;;;;;4905276;29;20177;-87
2023/06/13 01:06:19;;;;;;;6.27;3.77;;;25.20;42.60;;;;;;4923502;29;20280;-87
2023/06/13 01:08:45;;;;;;;5.47;3.70;;;25.20;42.80;;;;;;4924041;29;20200;-87
2023/06/13 01:11:39;;;;;;;4.53;3.70;;;25.10;42.80;;;;;;4939962;29;20160;-87
2023/06/13 01:14:15;;;;;;;4.13;3.73;;;25.10;42.80;;;;;;4885357;29;20189;-87
2023/06/13 01:16:47;;;;;;;3.57;3.27;;;25.10;42.80;;;;;;4893236;29;20184;-87
2023/06/13 01:19:43;;;;;;;4.20;3.80;;;25.10;42.90;;;;;;4914530;29;20177;-87
2023/06/13 01:22:45;;;;;;;4.87;3.80;;;25.10;42.90;;;;;;4908737;29;20231;-87
2023/06/13 01:25:52;;;;;;;5.00;3.63;;;25.00;42.90;;;;;;4886352;29;20191;-86
2023/06/13 01:28:24;;;;;;;4.33;3.93;;;25.00;42.90;;;;;;4908356;29;20455;-87
2023/06/13 01:30:53;;;;;;;4.20;3.80;;;25.00;43.00;;;;;;4904050;29;20287;-87
2023/06/13 01:33:46;;;;;;;4.10;3.50;;;25.00;43.00;;;;;;4903809;29;20196;-86
2023/06/13 01:36:11;;;;;;;4.50;3.63;;;24.90;43.00;;;;;;4919373;29;20216;-86
2023/06/13 01:38:38;;;;;;;4.17;3.70;;;24.90;43.10;;;;;;4915758;29;20225;-86
2023/06/13 01:41:04;;;;;;;4.20;3.80;;;24.90;43.10;;;;;;4923141;29;20219;-87
2023/06/13 01:43:29;;;;;;;5.50;4.03;;;25.00;43.10;;;;;;4935602;29;20177;-87
2023/06/13 01:46:07;;;;;;;4.37;3.60;;;24.90;43.10;;;;;;4903596;29;20180;-87
2023/06/13 01:48:55;;;;;;;4.30;3.80;;;24.90;43.20;;;;;;4935584;29;20204;-87
2023/06/13 01:51:47;;;;;;;4.13;3.73;;;24.90;43.20;;;;;;4935864;29;20213;-87
2023/06/13 01:54:17;;;;;;;5.17;3.87;;;24.90;43.20;;;;;;4918425;29;20186;-87
2023/06/13 01:57:04;;;;;;;4.17;3.80;;;24.90;43.30;;;;;;4923600;29;20184;-87
2023/06/13 01:59:32;;;;;;;4.73;3.87;;;24.90;43.30;;;;;;4923222;29;20832;-87
2023/06/13 02:01:59;;;;;;;6.67;3.90;;;24.90;43.30;;;;;;4923043;29;20212;-87
2023/06/13 02:04:43;;;;;;;5.00;3.90;;;24.80;43.30;;;;;;4927704;29;20580;-87
2023/06/13 02:07:15;;;;;;;4.50;4.10;;;24.80;43.40;;;;;;4920156;29;20194;-86
2023/06/13 02:09:41;;;;;;;4.67;3.80;;;24.80;43.40;;;;;;4918249;29;20180;-87
2023/06/13 02:12:22;;;;;;;5.47;4.07;;;24.70;43.40;;;;;;4922077;29;20228;-87
2023/06/13 02:14:48;;;;;;;6.37;4.33;;;24.70;43.40;;;;;;4930376;29;20181;-87
2023/06/13 02:17:14;;;;;;;4.73;3.93;;;24.70;43.40;;;;;;4903991;29;20177;-87
2023/06/13 02:19:46;;;;;;;4.37;3.90;;;24.60;43.30;;;;;;4905685;29;20283;-86
2023/06/13 02:22:17;;;;;;;6.17;3.90;;;24.60;43.40;;;;;;4919027;29;20306;-87
2023/06/13 02:24:51;;;;;;;5.97;4.07;;;24.60;43.40;;;;;;4930935;29;20172;-87
2023/06/13 02:27:23;;;;;;;5.87;4.13;;;24.60;43.50;;;;;;4938034;29;20537;-87
2023/06/13 02:30:08;;;;;;;5.23;4.07;;;24.60;43.50;;;;;;4938792;29;20247;-87
2023/06/13 02:32:36;;;;;;;4.87;3.67;;;24.50;43.50;;;;;;4922993;29;20180;-87
2023/06/13 02:35:09;;;;;;;4.20;3.80;;;24.60;43.60;;;;;;4926205;29;20195;-87
2023/06/13 02:37:35;;;;;;;5.97;4.17;;;24.50;43.60;;;;;;4926221;29;20262;-86
2023/06/13 02:40:05;;;;;;;4.37;3.93;;;24.50;43.60;;;;;;4918126;29;20173;-87
2023/06/13 02:42:30;;;;;;;5.33;4.37;;;24.40;43.60;;;;;;4907310;29;20268;-87
2023/06/13 02:44:58;;;;;;;4.90;3.90;;;24.40;43.70;;;;;;4913051;29;20179;-87
2023/06/13 02:47:23;;;;;;;5.07;4.17;;;24.40;43.70;;;;;;4942178;29;20183;-86
2023/06/13 02:49:49;;;;;;;4.40;4.00;;;24.30;43.70;;;;;;4938978;29;20180;-87
2023/06/13 02:52:28;;;;;;;6.30;4.40;;;24.30;43.70;;;;;;4907738;29;20568;-87
2023/06/13 02:54:54;;;;;;;6.47;3.93;;;24.30;43.70;;;;;;4925900;29;20184;-87
2023/06/13 02:57:26;;;;;;;6.97;4.47;;;24.30;43.70;;;;;;4938657;29;20292;-87
2023/06/13 02:59:51;;;;;;;5.53;4.20;;;24.20;43.70;;;;;;4908125;29;20197;-86
2023/06/13 03:02:20;;;;;;;5.43;4.30;;;24.20;43.70;;;;;;4942679;29;20247;-87
2023/06/13 03:04:47;;;;;;;5.70;4.10;;;24.20;43.70;;;;;;4926263;29;20218;-87
2023/06/13 03:07:46;;;;;;;5.53;4.50;;;24.10;43.70;;;;;;4905759;29;20219;-87
2023/06/13 03:10:26;;;;;;;7.00;4.20;;;24.10;43.70;;;;;;4907240;29;20207;-86
2023/06/13 03:12:55;;;;;;;4.43;4.03;;;24.10;43.80;;;;;;4927597;29;20555;-86
2023/06/13 03:15:20;;;;;;;5.30;4.20;;;24.00;43.70;;;;;;4936677;29;20211;-87
2023/06/13 03:17:46;;;;;;;5.93;4.57;;;24.00;43.80;;;;;;4925153;29;20220;-87
2023/06/13 03:20:20;;;;;;;4.80;4.30;;;24.00;43.70;;;;;;4940519;29;20198;-86
2023/06/13 03:22:52;;;;;;;5.10;4.50;;;24.10;43.80;;;;;;4925305;29;20183;-87
2023/06/13 03:25:21;;;;;;;6.20;4.20;;;24.00;43.70;;;;;;4940903;29;20574;-87
2023/06/13 03:27:46;;;;;;;4.50;3.97;;;24.00;43.70;;;;;;4921075;29;20183;-86
2023/06/13 03:30:12;;;;;;;4.30;3.90;;;24.00;43.70;;;;;;4941258;29;20462;-86
2023/06/13 03:32:59;;;;;;;4.10;3.80;;;24.00;43.70;;;;;;4914329;29;20177;-87
2023/06/13 03:35:55;;;;;;;4.43;4.03;;;24.00;43.70;;;;;;4941022;29;20181;-87
2023/06/13 03:38:27;;;;;;;4.70;4.20;;;24.00;43.70;;;;;;4887594;29;20468;-87
2023/06/13 03:40:53;;;;;;;4.13;3.73;;;24.00;43.80;;;;;;4917473;29;20324;-87
2023/06/13 04:58:55;;;;;;;;;;;24.50;44.80;;;;;;5625791;23;19927;-86
2023/06/13 05:01:21;;;;;;;;;;;24.60;44.60;;;;;;4881942;29;20065;-87
2023/06/13 05:03:51;;;;;;;;;;;24.70;44.50;;;;;;4880101;29;19913;-87
2023/06/13 05:06:17;;;;;;;;;;;24.80;44.40;;;;;;4881516;29;20364;-88
2023/06/13 05:08:45;;;;;;;;;;;24.80;44.20;;;;;;4879905;29;19955;-89
2023/06/13 05:11:15;;;;;;;;;;;24.90;44.20;;;;;;4877458;29;19916;-89
2023/06/13 05:13:49;;;;;;;;;;;24.90;44.10;;;;;;4878212;29;19911;-89
2023/06/13 05:16:17;;;;;;;;;;;25.00;44.00;;;;;;4879295;29;19911;-89
2023/06/13 05:18:44;;;;;;;;;;;25.00;44.00;;;;;;4896640;29;19911;-89
2023/06/13 05:21:16;;;;;;;;;;;25.10;43.90;;;;;;4879146;29;19911;-89
2023/06/13 05:23:43;;;;;;;;;;;25.10;43.90;;;;;;4880139;29;20127;-89
2023/06/13 05:26:21;;;;;;;;;;;25.20;43.90;;;;;;4878446;29;20134;-89
2023/06/13 05:28:47;;;;;;;;;;;25.20;44.00;;;;;;4877632;29;20202;-89
2023/06/13 05:31:13;;;;;;;;;;;25.20;44.20;;;;;;4878976;29;20006;-89
2023/06/13 05:33:39;;;;;;;;;;;25.20;44.20;;;;;;4881577;29;19896;-89
2023/06/13 05:36:04;;;;;;;;;;;25.20;44.20;;;;;;4892464;29;20181;-89
2023/06/13 05:38:31;;;;;;;;;;;25.20;44.10;;;;;;4899953;29;19920;-89
2023/06/13 05:40:59;;;;;;;;;;;25.30;44.10;;;;;;4874210;29;20104;-89
2023/06/13 05:43:28;;;;;;;;;;;25.40;44.20;;;;;;4892550;29;20180;-89
2023/06/13 05:45:53;;;;;;;;;;;25.40;44.20;;;;;;4875271;29;19970;-89
2023/06/13 05:48:19;;;;;;;;;;;25.50;44.00;;;;;;4890336;29;20260;-88
2023/06/13 05:50:48;;;;;;;;;;;25.60;44.00;;;;;;4887389;29;19918;-89
2023/06/13 05:53:17;;;;;;;;;;;25.60;44.00;;;;;;4873528;29;20156;-89
2023/06/13 05:55:42;;;;;;;;;;;25.70;43.90;;;;;;4874143;29;19912;-89
2023/06/13 05:58:11;;;;;;;;;;;25.80;44.10;;;;;;4889154;29;20129;-89
2023/06/13 06:00:40;;;;;;;;;;;25.90;44.00;;;;;;4889826;29;19920;-88
2023/06/13 06:03:06;;;;;;;;;;;25.90;44.20;;;;;;4873509;29;20320;-89
2023/06/13 06:05:34;;;;;;;;;;;25.90;44.30;;;;;;4874086;29;19922;-89
2023/06/13 06:08:00;;;;;;;;;;;25.90;44.20;;;;;;4889055;29;20499;-89
2023/06/13 06:10:25;;;;;;;;;;;26.00;44.00;;;;;;4891312;29;20013;-89
2023/06/13 06:12:57;;;;;;;;;;;26.10;43.90;;;;;;4874252;29;20272;-89
2023/06/13 06:15:22;;;;;;;;;;;26.20;43.90;;;;;;4875649;29;19957;-88
2023/06/13 06:17:50;;;;;;;;;;;26.30;43.90;;;;;;4873482;29;20169;-88
2023/06/13 06:20:16;;;;;;;;;;;26.30;44.20;;;;;;4876790;29;19946;-89
2023/06/13 06:22:41;;;;;;;;;;;26.30;44.00;;;;;;4876524;29;19915;-89
2023/06/13 06:25:12;;;;;;;;;;;26.50;43.90;;;;;;4894134;29;20161;-89
2023/06/13 06:27:39;;;;;;;;;;;26.60;43.80;;;;;;4879978;29;19912;-88
2023/06/13 06:30:05;;;;;;;;;;;26.60;43.80;;;;;;4877581;29;19922;-89
2023/06/13 06:32:33;;;;;;;;;;;26.80;43.90;;;;;;4879013;29;20184;-89
2023/06/13 06:34:59;;;;;;;;;;;26.80;43.70;;;;;;4876199;29;20166;-88
2023/06/13 06:37:25;;;;;;;;;;;26.90;43.60;;;;;;4875043;29;20073;-89
2023/06/13 06:39:50;;;;;;;;;;;27.00;43.50;;;;;;4875716;29;19912;-89
2023/06/13 06:42:16;;;;;;;;;;;27.10;43.40;;;;;;4891527;29;19930;-88
2023/06/13 06:44:41;;;;;;;;;;;27.20;43.40;;;;;;4873389;29;20131;-88
2023/06/13 06:47:07;;;;;;;;;;;27.30;43.30;;;;;;4890738;29;19916;-89
2023/06/13 06:49:32;;;;;;;;;;;27.30;43.20;;;;;;4877192;29;19912;-89
2023/06/13 06:51:58;;;;;;;;;;;27.50;43.30;;;;;;4876384;29;20203;-88
2023/06/13 06:54:27;;;;;;;;;;;27.50;43.10;;;;;;4893182;29;19923;-88
2023/06/13 06:56:52;;;;;;;;;;;27.60;43.10;;;;;;4893684;29;20181;-88
2023/06/13 06:59:18;;;;;;;;;;;27.70;43.50;;;;;;4875387;29;20435;-89
2023/06/13 07:01:43;;;;;;;;;;;27.80;43.00;;;;;;4889667;29;20022;-88
2023/06/13 07:04:08;;;;;;;;;;;27.80;42.90;;;;;;4891971;29;19923;-88
2023/06/13 07:06:37;;;;;;;;;;;27.90;42.90;;;;;;4886083;29;19954;-89
2023/06/13 07:09:06;;;;;;;;;;;28.00;42.90;;;;;;4876660;29;19922;-88
2023/06/13 07:11:31;;;;;;;;;;;28.10;42.10;;;;;;4875515;29;20359;-88
2023/06/13 07:13:57;;;;;;;;;;;28.20;42.60;;;;;;4875136;29;20025;-88
2023/06/13 07:16:22;;;;;;;;;;;28.20;42.50;;;;;;4892010;29;19922;-88
2023/06/13 07:18:49;;;;;;;;;;;28.20;42.40;;;;;;4872927;29;20114;-88
2023/06/13 07:21:15;;;;;;;;;;;28.30;42.40;;;;;;4874887;29;19915;-88
2023/06/13 07:23:44;;;;;;;;;;;28.40;42.00;;;;;;4890834;29;19915;-88
2023/06/13 07:26:10;;;;;;;;;;;28.40;42.20;;;;;;4889929;29;20013;-88
2023/06/13 07:28:35;;;;;;;;;;;28.50;42.00;;;;;;4870604;29;19933;-88
2023/06/13 07:31:02;;;;;;;;;;;28.50;42.10;;;;;;4872254;29;19922;-88
2023/06/13 07:33:28;;;;;;;;;;;28.60;42.10;;;;;;4872189;29;19915;-88
2023/06/13 07:35:53;;;;;;;;;;;28.70;42.10;;;;;;4867977;29;19927;-88
2023/06/13 07:38:20;;;;;;;;;;;28.70;41.80;;;;;;4890772;29;19918;-88
2023/06/13 07:40:45;;;;;;;;;;;28.80;42.00;;;;;;4892926;29;19915;-88
2023/06/13 07:43:11;;;;;;;;;;;28.90;41.90;;;;;;4873925;29;20164;-88
2023/06/13 07:45:40;;;;;;;;;;;28.90;41.20;;;;;;4876680;29;19911;-88
2023/06/13 07:48:09;;;;;;;;;;;29.00;41.70;;;;;;4892579;29;19922;-88
2023/06/13 07:50:42;;;;;;;;;;;29.10;41.70;;;;;;4876600;29;20146;-88
2023/06/13 07:53:10;;;;;;;;;;;29.20;40.90;;;;;;4876257;29;19953;-88
2023/06/13 07:55:36;;;;;;;;;;;29.30;41.30;;;;;;4874639;29;19912;-88
2023/06/13 07:58:04;;;;;;;;;;;29.30;41.30;;;;;;4873801;29;19926;-88
2023/06/13 08:00:34;;;;;;;;;;;29.40;41.30;;;;;;4875585;29;19927;-88
2023/06/13 08:02:59;;;;;;;;;;;29.40;40.40;;;;;;4876683;29;20021;-88
2023/06/13 08:05:26;;;;;;;;;;;29.30;40.40;;;;;;4891751;29;19915;-88
2023/06/13 08:07:55;;;;;;;;;;;29.40;41.00;;;;;;4875051;29;19995;-88
2023/06/13 08:10:21;;;;;;;;;;;29.40;40.40;;;;;;4872054;29;19926;-88
2023/06/13 08:12:47;;;;;;;;;;;29.40;40.90;;;;;;4851253;29;19915;-88
2023/06/13 08:15:12;;;;;;;;;;;29.50;41.10;;;;;;4883336;29;20030;-88
2023/06/13 08:17:41;;;;;;;;;;;29.50;41.10;;;;;;4872787;29;20220;-89
2023/06/13 08:20:10;;;;;;;;;;;29.60;40.50;;;;;;4884167;29;19919;-88
2023/06/13 08:22:39;;;;;;;;;;;29.60;40.90;;;;;;4873846;29;20269;-88
2023/06/13 08:25:08;;;;;;;;;;;29.60;40.90;;;;;;4873689;29;19990;-88
2023/06/13 08:27:35;;;;;;;;;;;29.70;40.50;;;;;;4871271;29;19982;-88
2023/06/13 08:30:04;;;;;;;;;;;29.70;40.60;;;;;;4887551;29;19971;-88
2023/06/13 08:32:33;;;;;;;;;;;29.70;40.40;;;;;;4887958;29;19920;-88
2023/06/13 08:35:02;;;;;;;;;;;29.70;40.70;;;;;;4872436;29;19915;-88
2023/06/13 08:37:28;;;;;;;;;;;29.80;40.70;;;;;;4897648;29;19991;-88
2023/06/13 08:39:54;;;;;;;;;;;29.80;41.00;;;;;;4893858;29;19924;-88
2023/06/13 08:42:33;;;;;;;;;;;29.80;41.10;;;;;;4876910;29;19941;-88
2023/06/13 08:45:03;;;;;;;;;;;29.90;41.10;;;;;;4875002;29;19966;-88
2023/06/13 08:47:32;;;;;;;;;;;29.90;41.20;;;;;;4891695;29;20124;-88
2023/06/13 08:50:06;;;;;;;;;;;29.90;40.50;;;;;;4873856;29;20264;-88
2023/06/13 08:52:41;;;;;;;;;;;30.00;41.00;;;;;;4892658;29;19962;-88
2023/06/13 08:55:16;;;;;;;;;;;30.00;41.20;;;;;;4889987;29;19923;-88
2023/06/13 08:57:45;;;;;;;;;;;30.10;41.30;;;;;;4871640;29;19944;-88
2023/06/13 09:00:15;;;;;;;;;;;30.10;41.30;;;;;;4885824;29;20207;-88
2023/06/13 09:02:43;;;;;;;;;;;30.10;41.40;;;;;;4884841;29;19927;-89
2023/06/13 09:05:13;;;;;;;;;;;30.10;41.30;;;;;;4885397;29;19912;-88
2023/06/13 09:07:39;;;;;;;;;;;30.10;41.10;;;;;;4886708;29;19939;-88
2023/06/13 09:10:15;;;;;;;;;;;30.20;41.40;;;;;;4887873;29;19911;-88
2023/06/13 09:12:46;;;;;;;;;;;30.20;41.50;;;;;;4885215;29;19983;-89
2023/06/13 09:15:14;;;;;;;;;;;30.20;41.50;;;;;;4868697;29;20458;-88
2023/06/13 09:17:43;;;;;;;;;;;30.20;41.60;;;;;;4856375;29;20279;-88
2023/06/13 09:20:09;;;;;;;;;;;30.20;41.60;;;;;;4872582;29;20174;-88
2023/06/13 09:22:37;;;;;;;;;;;30.20;41.60;;;;;;4871552;29;19919;-88
2023/06/13 09:25:08;;;;;;;;;;;30.30;41.60;;;;;;4873264;29;20007;-88
2023/06/13 09:27:36;;;;;;;;;;;30.30;40.40;;;;;;4872184;29;19912;-88
2023/06/13 09:30:05;;;;;;;;;;;30.40;41.60;;;;;;4871596;29;19912;-88
2023/06/13 09:32:31;;;;;;;;;;;30.40;39.40;;;;;;4874199;29;19934;-88
2023/06/13 09:34:59;;;;;;;;;;;30.30;39.80;;;;;;4855197;29;20220;-88
2023/06/13 09:37:29;;;;;;;;;;;30.30;39.70;;;;;;4850143;29;20348;-88
2023/06/13 09:39:55;;;;;;;;;;;30.40;39.00;;;;;;4852240;29;19916;-88
2023/06/13 09:42:21;;;;;;;;;;;30.40;40.40;;;;;;4868377;29;20090;-88
2023/06/13 09:44:48;;;;;;;;;;;30.40;40.40;;;;;;4872568;29;20058;-89
2023/06/13 09:47:23;;;;;;;;;;;30.40;39.00;;;;;;4869978;29;19912;-89
2023/06/13 09:49:56;;;;;;;;;;;30.40;39.20;;;;;;4869769;29;19919;-88
2023/06/13 09:52:22;;;;;;;;;;;30.30;38.80;;;;;;4872424;29;19920;-88
2023/06/13 09:54:48;;;;;;;;;;;30.30;39.30;;;;;;4871903;29;20248;-88
2023/06/13 09:57:16;;;;;;;;;;;30.30;39.30;;;;;;4872977;29;19919;-88
2023/06/13 09:59:42;;;;;;;;;;;30.40;39.20;;;;;;4856534;29;19919;-88
2023/06/13 10:02:07;;;;;;;;;;;30.40;39.60;;;;;;4854542;29;19920;-88
2023/06/13 10:04:33;;;;;;;;;;;30.40;39.40;;;;;;4854775;29;19912;-88
2023/06/13 10:06:58;;;;;;;;;;;30.30;39.70;;;;;;4853795;29;19918;-88
2023/06/13 10:09:30;;;;;;;;;;;30.30;39.80;;;;;;4853127;29;19912;-88
2023/06/13 10:11:57;;;;;;;;;;;30.40;38.90;;;;;;4854595;29;19944;-88
2023/06/13 10:14:23;;;;;;;;;;;30.00;37.90;;;;;;4867902;29;20014;-88
2023/06/13 10:17:11;;;;;;;;;;;29.90;39.20;;;;;;4868649;29;20087;-89
2023/06/13 10:20:00;;;;;;;;;;;30.10;39.70;;;;;;4868771;29;19920;-88
2023/06/13 10:22:28;;;;;;;;;;;30.10;40.20;;;;;;4869370;29;19915;-87
2023/06/13 10:24:57;;;;;;;;;;;30.20;40.10;;;;;;4868392;29;19911;-89
2023/06/13 10:27:31;;;;;;;;;;;30.30;40.70;;;;;;4870674;29;19911;-89
2023/06/13 10:30:03;;;;;;;;;;;30.30;37.80;;;;;;4868358;29;19955;-88
2023/06/13 10:32:48;;;;;;;;;;;30.30;39.80;;;;;;4870129;29;20159;-89
2023/06/13 10:35:30;;;;;;;;;;;30.30;39.90;;;;;;4868450;29;20066;-88
2023/06/13 10:38:15;;;;;;;;;;;30.30;39.20;;;;;;4865834;29;20146;-88
2023/06/13 10:40:59;;;;;;;;;;;30.30;40.50;;;;;;4867336;29;20141;-88
2023/06/13 10:43:57;;;;;;;;;;;30.30;40.80;;;;;;4867196;29;19924;-89
2023/06/13 10:46:23;;;;;;;;;;;30.30;40.00;;;;;;4831984;29;20122;-89
2023/06/13 10:48:56;;;;;;;;;;;30.30;40.70;;;;;;4866557;29;19915;-89
2023/06/13 10:51:23;;;;;;;;;;;30.30;40.50;;;;;;4866756;29;20273;-88
2023/06/13 10:54:04;;;;;;;;;;;30.40;40.50;;;;;;4867283;29;19919;-88
2023/06/13 10:56:30;;;;;;;;;;;30.40;40.60;;;;;;4871010;29;19947;-88
2023/06/13 10:59:11;;;;;;;;;;;30.40;40.70;;;;;;4869538;29;20090;-88
2023/06/13 11:01:38;;;;;;;;;;;30.40;41.00;;;;;;4871983;29;19916;-89
2023/06/13 11:04:14;;;;;;;;;;;30.40;41.20;;;;;;4872548;29;19912;-89
2023/06/13 11:06:40;;;;;;;;;;;30.40;41.30;;;;;;4867505;29;20348;-88
2023/06/13 11:09:18;;;;;;;;;;;30.30;39.20;;;;;;4868977;29;20095;-89
2023/06/13 11:11:45;;;;;;;;;;;30.30;40.00;;;;;;4868234;29;20251;-88
2023/06/13 11:14:14;;;;;;;;;;;30.30;40.10;;;;;;4869300;29;19912;-90
2023/06/13 11:16:39;;;;;;;;;;;30.30;40.00;;;;;;4856984;29;19911;-88
2023/06/13 11:19:09;;;;;;;;;;;30.40;40.70;;;;;;4869851;29;20027;-88
2023/06/13 11:21:45;;;;;;;;;;;30.30;39.30;;;;;;4870735;29;19943;-87
2023/06/13 11:24:17;;;;;;;;;;;30.30;40.70;;;;;;4871442;29;19912;-87
2023/06/13 11:26:43;;;;;;;;;;;30.30;41.00;;;;;;4873514;29;19920;-88
2023/06/13 11:29:09;;;;;;;;;;;30.30;40.90;;;;;;4876968;29;20418;-88
2023/06/13 11:31:36;;;;;;;;;;;30.40;40.90;;;;;;4871665;29;19915;-89
2023/06/13 11:34:03;;;;;;;;;;;30.40;39.80;;;;;;4870710;29;20311;-88
2023/06/13 11:36:42;;;;;;;;;;;30.00;39.90;;;;;;4869517;29;19912;-88
2023/06/13 11:39:20;;;;;;;;;;;30.00;39.80;;;;;;4871165;29;20038;-88
2023/06/13 11:41:46;;;;;;;;;;;30.10;40.30;;;;;;4868765;29;20086;-88
2023/06/13 11:44:15;;;;;;;;;;;30.10;40.80;;;;;;4868512;29;19911;-88
2023/06/13 11:46:43;;;;;;;;;;;30.20;40.00;;;;;;4852002;29;20019;-89
2023/06/13 11:49:13;;;;;;;;;;;30.10;41.00;;;;;;4870526;29;19912;-88
2023/06/13 11:51:39;;;;;;;;;;;30.10;41.10;;;;;;4870682;29;19922;-88
2023/06/13 11:54:05;;;;;;;;;;;30.10;41.40;;;;;;4863292;29;19920;-89
2023/06/13 11:56:34;;;;;;;;;;;30.10;40.00;;;;;;4855822;29;19912;-89
2023/06/13 11:59:00;;;;;;;;;;;30.10;40.30;;;;;;4855005;29;19920;-88
2023/06/13 12:01:30;;;;;;;;;;;30.10;40.60;;;;;;4876190;29;19916;-89
2023/06/13 12:03:57;;;;;;;;;;;30.10;40.40;;;;;;4868488;29;20318;-89
2023/06/13 12:06:25;;;;;;;;;;;30.10;40.90;;;;;;4870524;29;20113;-87
2023/06/13 12:08:51;;;;;;;;;;;30.10;41.50;;;;;;4869901;29;20265;-88
2023/06/13 12:11:17;;;;;;;;;;;29.90;39.90;;;;;;4853108;29;20186;-89
2023/06/13 12:13:56;;;;;;;;;;;29.40;39.70;;;;;;4870973;29;19919;-88
2023/06/13 12:16:29;;;;;;;;;;;29.20;40.80;;;;;;4871072;29;19912;-89
2023/06/13 12:18:55;;;;;;;;;;;29.40;40.40;;;;;;4865686;29;19938;-89
2023/06/13 12:21:53;;;;;;;;;;;29.50;40.10;;;;;;4867752;29;20196;-89
2023/06/13 12:24:20;;;;;;;;;;;29.60;40.20;;;;;;4847816;29;19919;-88
2023/06/13 12:26:45;;;;;;;;;;;29.70;40.50;;;;;;4865819;29;19915;-88
2023/06/13 12:29:16;;;;;;;;;;;29.80;40.70;;;;;;4848287;29;20170;-88
2023/06/13 12:31:44;;;;;;;;;;;29.80;41.00;;;;;;4853717;29;20061;-89
2023/06/13 12:34:14;;;;;;;;;;;29.90;41.10;;;;;;4867807;29;19951;-88
2023/06/13 12:36:42;;;;;;;;;;;29.90;40.40;;;;;;4865732;29;20462;-89
2023/06/13 12:39:14;;;;;;;;;;;29.90;40.00;;;;;;4865998;29;19924;-89
2023/06/13 12:41:49;;;;;;;;;;;29.70;40.00;;;;;;4867589;29;19943;-89
2023/06/13 12:44:15;;;;;;;;;;;29.60;39.50;;;;;;4864916;29;19915;-90
2023/06/13 12:46:41;;;;;;;;;;;29.20;39.70;;;;;;4866389;29;19912;-88
2023/06/13 12:49:10;;;;;;;;;;;29.00;40.60;;;;;;4870095;29;19919;-88
2023/06/13 12:51:41;;;;;;;;;;;29.20;40.70;;;;;;4868870;29;19912;-88
2023/06/13 12:54:10;;;;;;;;;;;29.40;40.40;;;;;;4868869;29;20291;-89
2023/06/13 12:56:38;;;;;;;;;;;29.50;40.40;;;;;;4869613;29;20319;-88
2023/06/13 12:59:11;;;;;;;;;;;29.60;40.50;;;;;;4851088;29;20070;-88
2023/06/13 13:01:37;;;;;;;;;;;29.70;40.90;;;;;;4850864;29;19915;-89
2023/06/13 13:04:03;;;;;;;;;;;29.70;39.80;;;;;;4850247;29;20298;-89
2023/06/13 13:06:29;;;;;;;;;;;29.40;39.90;;;;;;4852745;29;20376;-89
2023/06/13 13:08:56;;;;;;;;;;;29.30;40.00;;;;;;4870147;29;19922;-89
2023/06/13 13:11:21;;;;;;;;;;;29.30;39.60;;;;;;4869701;29;20074;-88
2023/06/13 13:13:56;;;;;;;;;;;29.30;40.20;;;;;;4868885;29;19912;-89
2023/06/13 13:16:25;;;;;;;;;;;29.40;40.00;;;;;;4868218;29;20359;-88
2023/06/13 13:18:51;;;;;;;;;;;29.50;40.30;;;;;;4855195;29;19911;-90
2023/06/13 13:21:16;;;;;;;;;;;29.60;39.90;;;;;;4872493;29;19942;-87
2023/06/13 13:23:42;;;;;;;;;;;29.60;40.20;;;;;;4889045;29;19911;-89
2023/06/13 13:26:07;;;;;;;;;;;29.60;40.20;;;;;;4890037;29;20215;-89
2023/06/13 13:28:33;;;;;;;;;;;29.40;38.80;;;;;;4872425;29;20220;-89
2023/06/13 13:31:02;;;;;;;;;;;29.20;39.30;;;;;;4872848;29;19911;-88
2023/06/13 13:33:40;;;;;;;;;;;28.80;39.30;;;;;;4870296;29;19911;-89
2023/06/13 13:36:06;;;;;;;;;;;28.80;40.00;;;;;;4888429;29;19926;-88
2023/06/13 13:38:31;;;;;;;;;;;29.00;40.00;;;;;;4873008;29;20001;-89
2023/06/13 13:40:59;;;;;;;;;;;29.10;39.80;;;;;;4888623;29;19919;-89
2023/06/13 13:43:27;;;;;;;;;;;29.20;40.00;;;;;;4885565;29;20075;-89
2023/06/13 13:45:56;;;;;;;;;;;29.30;40.10;;;;;;4868207;29;20058;-89
2023/06/13 13:48:25;;;;;;;;;;;29.40;39.80;;;;;;4851389;29;20124;-89
2023/06/13 13:50:52;;;;;;;;;;;29.40;40.00;;;;;;4853151;29;19960;-89
2023/06/13 13:53:18;;;;;;;;;;;29.40;39.60;;;;;;4849912;29;19916;-89
2023/06/13 13:55:44;;;;;;;;;;;29.50;39.30;;;;;;4851220;29;20099;-88
2023/06/13 13:58:23;;;;;;;;;;;29.40;40.00;;;;;;4850873;29;20257;-89
2023/06/13 14:00:48;;;;;;;;;;;29.40;40.00;;;;;;4848763;29;19912;-89
2023/06/13 14:03:20;;;;;;;;;;;29.40;38.90;;;;;;4848884;29;20088;-90
2023/06/13 14:05:48;;;;;;;;;;;29.20;39.50;;;;;;4867438;29;20169;-88
2023/06/13 14:08:17;;;;;;;;;;;29.30;39.60;;;;;;4853032;29;19915;-88
2023/06/13 14:10:46;;;;;;;;;;;29.30;39.70;;;;;;4849846;29;19919;-89
2023/06/13 14:13:14;;;;;;;;;;;29.30;40.00;;;;;;4851696;29;19923;-88
2023/06/13 14:15:43;;;;;;;;;;;29.40;40.00;;;;;;4859087;29;19912;-91
2023/06/13 14:18:09;;;;;;;;;;;29.50;40.00;;;;;;4853126;29;19924;-90
2023/06/13 14:20:38;;;;;;;;;;;29.50;40.20;;;;;;4853994;29;19919;-90
2023/06/13 14:23:07;;;;;;;;;;;29.50;40.20;;;;;;4849974;29;20292;-90
2023/06/13 14:25:32;;;;;;;;;;;29.50;39.10;;;;;;4851705;29;20436;-90
2023/06/13 14:27:57;;;;;;;;;;;29.40;39.20;;;;;;4850694;29;20329;-90
2023/06/13 14:30:23;;;;;;;;;;;29.40;39.60;;;;;;4872697;29;19915;-90
2023/06/13 14:32:49;;;;;;;;;;;29.40;40.10;;;;;;4860479;29;19915;-91
2023/06/13 14:35:16;;;;;;;;;;;29.50;40.00;;;;;;4857140;29;19922;-91
2023/06/13 14:37:41;;;;;;;;;;;29.50;39.70;;;;;;4855465;29;20014;-91
2023/06/13 14:40:11;;;;;;;;;;;29.50;39.60;;;;;;4872194;29;20015;-91
2023/06/13 14:42:40;;;;;;;;;;;29.50;40.00;;;;;;4855187;29;20026;-90
2023/06/13 14:45:09;;;;;;;;;;;29.50;40.20;;;;;;4874285;29;19963;-90
2023/06/13 14:47:38;;;;;;;;;;;29.50;39.30;;;;;;4872306;29;19915;-90
2023/06/13 14:50:08;;;;;;;;;;;29.50;39.50;;;;;;4874441;29;19939;-91
2023/06/13 14:52:36;;;;;;;;;;;29.50;38.80;;;;;;4873226;29;19990;-91
2023/06/13 14:55:05;;;;;;;;;;;29.40;39.10;;;;;;4875150;29;20273;-91
2023/06/13 14:57:55;;;;;;;;;;;29.40;39.90;;;;;;4872242;29;19923;-91
2023/06/13 15:00:21;;;;;;;;;;;29.30;39.40;;;;;;4844529;29;20193;-91
2023/06/13 15:02:50;;;;;;;;;;;29.30;39.30;;;;;;4853762;29;20170;-92
2023/06/13 15:05:16;;;;;;;;;;;29.20;39.00;;;;;;4853202;29;19931;-91
2023/06/13 15:07:41;;;;;;;;;;;29.00;39.80;;;;;;4853904;29;20127;-91
2023/06/13 15:10:07;;;;;;;;;;;29.00;39.50;;;;;;4864401;29;19912;-92
2023/06/13 15:12:42;;;;;;;;;;;29.00;39.60;;;;;;4888778;29;20080;-91
2023/06/13 15:15:09;;;;;;;;;;;29.00;39.60;;;;;;4888000;29;19916;-91
2023/06/13 15:17:35;;;;;;;;;;;28.90;39.50;;;;;;4878917;29;20010;-91
2023/06/13 15:20:00;;;;;;;;;;;29.00;39.70;;;;;;4887374;29;20119;-91
2023/06/13 15:22:26;;;;;;;;;;;29.10;39.80;;;;;;4876316;29;19916;-91